Newburg, Iowa
Current Conditions -  °F | °C
As of 11:35 AM on Friday 31 Oct 2014 (Local Time) from KGGI Reporting Station
Clear Clear  
Wind Chill: 28°   Ceiling: Unl
Heat Index: 36°   Visibility: 10mi
Dew Point: 20°   Wind: 14mph
Humidity: 51%   Direction: 360°N
Pressure: 30.47"   Gusts: 20mph
Location:  41.7319°N, 92.7662°W
Report Text: KGGI 311635Z AUTO 36012G17KT 10SM CLR 02/M07 A3047 RMK AO2 T00241068
Loading
Personal Weather Stations






























Interactive Weather Map
Tropical Storm Tracking
New forecast layout! Learn more

10-Day Weather Forecast

Advertisements
Track Severe Weather on mobile